Time;durP1;ratioP1;P1;durP2;ratioP2;P2;SDS_P1;SDS_P2;PMS_P1;PMS_P2;Temp;Humidity;BMP_temperature;BMP_pressure;BME280_temperature;BME280_humidity;BME280_pressure;Samples;Min_cycle;Max_cycle;Signal;HPM_P1;HPM_P2
2023/12/25 00:02:04;;;;;;;;;;;19.80;49.90;;;;;;5030789;28;19933;-62
2023/12/25 00:04:30;;;;;;;;;;;19.80;49.90;;;;;;5030042;28;20404;-62
2023/12/25 00:06:57;;;;;;;;;;;19.80;49.90;;;;;;5028613;28;19928;-61
2023/12/25 00:09:24;;;;;;;;;;;19.80;49.90;;;;;;5031554;28;19925;-61
2023/12/25 00:11:51;;;;;;;;;;;19.80;49.90;;;;;;5030491;28;19933;-61
2023/12/25 00:14:18;;;;;;;;;;;19.80;49.90;;;;;;5030332;28;19921;-62
2023/12/25 00:16:46;;;;;;;;;;;19.80;49.90;;;;;;5022796;28;20199;-62
2023/12/25 00:19:12;;;;;;;;;;;19.80;49.90;;;;;;5036624;28;19961;-61
2023/12/25 00:21:39;;;;;;;;;;;19.80;49.90;;;;;;5031275;28;19979;-62
2023/12/25 00:24:06;;;;;;;;;;;19.80;49.90;;;;;;5022683;28;19922;-61
2023/12/25 00:26:33;;;;;;;;;;;19.80;49.90;;;;;;5031407;28;19925;-61
2023/12/25 00:29:00;;;;;;;;;;;19.80;50.00;;;;;;5030405;28;19956;-61
2023/12/25 00:31:26;;;;;;;;;;;19.80;49.90;;;;;;5028436;28;19921;-62
2023/12/25 00:33:54;;;;;;;;;;;19.80;49.90;;;;;;5030112;28;19921;-61
2023/12/25 00:36:21;;;;;;;;;;;19.80;49.90;;;;;;5029991;28;19986;-62
2023/12/25 00:38:48;;;;;;;;;;;19.80;49.90;;;;;;5029881;28;19921;-61
2023/12/25 00:41:14;;;;;;;;;;;19.80;49.90;;;;;;5028146;28;19925;-62
2023/12/25 00:43:41;;;;;;;;;;;19.80;49.90;;;;;;5028563;28;19979;-62
2023/12/25 00:46:08;;;;;;;;;;;19.80;49.90;;;;;;5030022;28;19967;-62
2023/12/25 00:48:34;;;;;;;;;;;19.80;49.90;;;;;;5028934;28;19921;-62
2023/12/25 00:51:03;;;;;;;;;;;19.80;49.90;;;;;;5028092;28;19964;-62
2023/12/25 00:53:29;;;;;;;;;;;19.80;49.90;;;;;;5028938;28;19933;-62
2023/12/25 00:55:56;;;;;;;;;;;19.80;49.90;;;;;;5019609;28;19925;-62
2023/12/25 00:58:23;;;;;;;;;;;19.80;49.90;;;;;;5028047;28;19921;-62
2023/12/25 01:00:48;;;;;;;;;;;19.80;49.90;;;;;;5031081;28;19987;-62
2023/12/25 01:03:16;;;;;;;;;;;19.80;49.90;;;;;;5031770;28;19920;-62
2023/12/25 01:05:42;;;;;;;;;;;19.80;49.90;;;;;;5021559;28;19925;-62
2023/12/25 01:08:10;;;;;;;;;;;19.80;49.90;;;;;;5029293;28;19921;-62
2023/12/25 01:10:37;;;;;;;;;;;19.80;49.90;;;;;;5030985;28;19944;-62
2023/12/25 01:13:04;;;;;;;;;;;19.80;49.90;;;;;;5029556;28;19921;-62
2023/12/25 01:15:31;;;;;;;;;;;19.80;49.90;;;;;;5030993;28;19975;-62
2023/12/25 01:17:57;;;;;;;;;;;19.80;49.90;;;;;;5030753;28;19975;-62
2023/12/25 01:20:24;;;;;;;;;;;19.80;49.90;;;;;;5030367;28;20259;-62
2023/12/25 01:22:51;;;;;;;;;;;19.80;49.90;;;;;;5022456;28;19925;-62
2023/12/25 01:25:19;;;;;;;;;;;19.80;49.90;;;;;;5029581;28;20327;-62
2023/12/25 01:27:46;;;;;;;;;;;19.80;49.90;;;;;;5029520;28;19925;-62
2023/12/25 01:30:13;;;;;;;;;;;19.80;49.90;;;;;;5031005;28;19928;-62
2023/12/25 01:32:40;;;;;;;;;;;19.80;49.90;;;;;;5029015;28;19921;-62
2023/12/25 01:35:07;;;;;;;;;;;19.80;49.90;;;;;;5030566;28;19925;-62
2023/12/25 01:37:34;;;;;;;;;;;19.80;49.90;;;;;;5030632;28;19921;-62
2023/12/25 01:40:00;;;;;;;;;;;19.80;49.90;;;;;;5026964;28;19944;-62
2023/12/25 01:42:28;;;;;;;;;;;19.80;49.90;;;;;;5025735;28;19971;-62
2023/12/25 01:44:55;;;;;;;;;;;19.80;49.90;;;;;;5030557;28;19932;-62
2023/12/25 01:47:22;;;;;;;;;;;19.80;49.90;;;;;;5029142;28;19976;-62
2023/12/25 01:49:48;;;;;;;;;;;19.80;49.90;;;;;;5029257;28;19921;-62
2023/12/25 01:52:15;;;;;;;;;;;19.80;49.90;;;;;;5029312;28;19921;-62
2023/12/25 01:54:42;;;;;;;;;;;19.80;49.90;;;;;;5026582;28;19983;-62
2023/12/25 01:57:09;;;;;;;;;;;19.80;49.90;;;;;;5029997;28;19925;-62
2023/12/25 01:59:37;;;;;;;;;;;19.80;49.80;;;;;;5027595;28;19959;-62
2023/12/25 02:02:04;;;;;;;;;;;19.80;49.90;;;;;;5027135;28;19921;-62
2023/12/25 02:04:31;;;;;;;;;;;19.80;49.90;;;;;;5033139;28;19921;-62
2023/12/25 02:06:57;;;;;;;;;;;19.80;49.90;;;;;;5034088;28;19921;-62
2023/12/25 02:09:24;;;;;;;;;;;19.80;49.90;;;;;;5032703;28;19947;-62
2023/12/25 02:11:51;;;;;;;;;;;19.80;49.90;;;;;;5029900;28;19925;-62
2023/12/25 02:14:17;;;;;;;;;;;19.80;49.90;;;;;;5033924;28;19921;-62
2023/12/25 02:16:45;;;;;;;;;;;19.80;49.90;;;;;;5033189;28;19948;-62
2023/12/25 02:19:16;;;;;;;;;;;19.80;49.90;;;;;;5032684;28;19944;-63
2023/12/25 02:21:42;;;;;;;;;;;19.80;49.90;;;;;;5033785;28;19925;-63
2023/12/25 02:24:09;;;;;;;;;;;19.80;49.90;;;;;;5035001;28;19921;-63
2023/12/25 02:26:37;;;;;;;;;;;19.80;49.90;;;;;;5031283;28;19927;-62
2023/12/25 02:29:04;;;;;;;;;;;19.80;49.90;;;;;;5024414;28;19925;-61
2023/12/25 02:31:30;;;;;;;;;;;19.80;49.80;;;;;;5032180;28;19925;-63
2023/12/25 02:33:57;;;;;;;;;;;19.80;49.90;;;;;;5032507;28;20012;-62
2023/12/25 02:36:24;;;;;;;;;;;19.80;49.80;;;;;;5031875;28;19931;-61
2023/12/25 02:38:54;;;;;;;;;;;19.80;49.90;;;;;;5032032;28;19971;-61
2023/12/25 02:41:22;;;;;;;;;;;19.80;49.90;;;;;;5032311;28;19944;-61
2023/12/25 02:43:50;;;;;;;;;;;19.80;49.80;;;;;;5029971;28;19949;-61
2023/12/25 02:46:16;;;;;;;;;;;19.80;49.90;;;;;;5032701;28;19928;-61
2023/12/25 02:48:43;;;;;;;;;;;19.80;49.80;;;;;;5022370;28;20118;-61
2023/12/25 02:51:10;;;;;;;;;;;19.80;49.80;;;;;;5032565;28;19925;-62
2023/12/25 02:53:37;;;;;;;;;;;19.80;49.80;;;;;;5033221;28;20259;-61
2023/12/25 02:56:03;;;;;;;;;;;19.80;49.80;;;;;;5033044;28;19945;-62
2023/12/25 02:58:30;;;;;;;;;;;19.80;49.80;;;;;;5033791;28;19921;-61
2023/12/25 03:00:58;;;;;;;;;;;19.80;49.80;;;;;;5030566;28;19992;-62
2023/12/25 03:03:25;;;;;;;;;;;19.80;49.80;;;;;;5031846;28;19952;-61
2023/12/25 03:05:52;;;;;;;;;;;19.80;49.80;;;;;;5030174;28;19960;-62
2023/12/25 03:08:18;;;;;;;;;;;19.80;49.80;;;;;;5031435;28;19972;-61
2023/12/25 03:10:45;;;;;;;;;;;19.80;49.80;;;;;;5030307;28;20437;-62
2023/12/25 03:13:12;;;;;;;;;;;19.80;49.80;;;;;;5032101;28;19926;-61
2023/12/25 03:15:38;;;;;;;;;;;19.80;49.80;;;;;;5030523;28;19975;-61
2023/12/25 03:18:06;;;;;;;;;;;19.80;49.80;;;;;;5032369;28;19952;-62
2023/12/25 03:20:33;;;;;;;;;;;19.80;49.80;;;;;;5031573;28;19975;-62
2023/12/25 03:23:00;;;;;;;;;;;19.80;49.80;;;;;;5031777;28;20019;-62
2023/12/25 03:25:27;;;;;;;;;;;19.80;49.90;;;;;;5030648;28;19925;-61
2023/12/25 03:27:53;;;;;;;;;;;19.80;49.80;;;;;;5015359;28;19929;-61
2023/12/25 03:30:20;;;;;;;;;;;19.80;49.80;;;;;;5031061;28;19956;-61
2023/12/25 03:32:47;;;;;;;;;;;19.80;49.80;;;;;;5030674;28;19925;-62
2023/12/25 03:35:15;;;;;;;;;;;19.80;49.80;;;;;;5031161;28;19944;-61
2023/12/25 03:37:42;;;;;;;;;;;19.80;49.80;;;;;;5032127;28;19995;-62
2023/12/25 03:40:09;;;;;;;;;;;19.80;49.80;;;;;;5031085;28;19983;-62
2023/12/25 03:42:36;;;;;;;;;;;19.80;49.80;;;;;;5027735;28;19967;-62
2023/12/25 03:45:02;;;;;;;;;;;19.80;49.80;;;;;;5032926;28;19921;-62
2023/12/25 03:47:30;;;;;;;;;;;19.80;49.80;;;;;;5031053;28;19921;-61
2023/12/25 03:49:57;;;;;;;;;;;19.80;49.80;;;;;;5026766;28;19982;-62
2023/12/25 03:52:25;;;;;;;;;;;19.80;49.80;;;;;;5031814;28;19925;-61
2023/12/25 03:54:51;;;;;;;;;;;19.80;49.80;;;;;;5032114;28;19925;-62
2023/12/25 03:57:18;;;;;;;;;;;19.80;49.80;;;;;;5032138;28;19944;-62
2023/12/25 03:59:45;;;;;;;;;;;19.80;49.80;;;;;;5028740;28;19921;-62
2023/12/25 04:02:12;;;;;;;;;;;19.80;49.80;;;;;;5030759;28;19948;-62
2023/12/25 04:04:39;;;;;;;;;;;19.80;49.80;;;;;;5022436;28;19927;-62
2023/12/25 04:07:06;;;;;;;;;;;19.80;49.80;;;;;;5030768;28;19928;-61
2023/12/25 04:09:34;;;;;;;;;;;19.80;49.80;;;;;;5031769;28;20381;-61
2023/12/25 04:12:01;;;;;;;;;;;19.80;49.80;;;;;;5030652;28;19933;-61
2023/12/25 04:14:27;;;;;;;;;;;19.80;49.80;;;;;;5028112;28;19925;-62
2023/12/25 04:16:54;;;;;;;;;;;19.80;49.80;;;;;;5030632;28;19929;-62
2023/12/25 04:19:21;;;;;;;;;;;19.80;49.80;;;;;;5029684;28;19921;-62
2023/12/25 04:21:47;;;;;;;;;;;19.80;49.80;;;;;;5043455;28;19971;-61
2023/12/25 04:24:14;;;;;;;;;;;19.80;49.80;;;;;;5031195;28;19925;-61
2023/12/25 04:26:42;;;;;;;;;;;19.80;49.80;;;;;;5031512;28;19955;-61
2023/12/25 04:29:09;;;;;;;;;;;19.80;49.80;;;;;;5028075;28;19925;-62
2023/12/25 04:31:36;;;;;;;;;;;19.80;49.80;;;;;;5030358;28;19986;-61
2023/12/25 04:34:02;;;;;;;;;;;19.80;49.80;;;;;;5030154;28;19925;-62
2023/12/25 04:36:30;;;;;;;;;;;19.80;49.80;;;;;;5029784;28;19929;-61
2023/12/25 04:38:58;;;;;;;;;;;19.80;49.70;;;;;;5029764;28;19921;-62
2023/12/25 04:41:24;;;;;;;;;;;19.80;49.70;;;;;;5029606;28;19979;-62
2023/12/25 04:43:53;;;;;;;;;;;19.80;49.70;;;;;;5029589;28;19925;-62
2023/12/25 04:46:19;;;;;;;;;;;19.80;49.70;;;;;;5030211;28;20313;-62
2023/12/25 04:48:46;;;;;;;;;;;19.80;49.70;;;;;;5029955;28;19990;-62
2023/12/25 04:51:13;;;;;;;;;;;19.80;49.70;;;;;;5026532;28;19925;-61
2023/12/25 04:53:40;;;;;;;;;;;19.80;49.70;;;;;;5027549;28;19921;-62
2023/12/25 04:56:09;;;;;;;;;;;19.80;49.70;;;;;;5029728;28;19933;-62
2023/12/25 04:58:36;;;;;;;;;;;19.80;49.70;;;;;;5030420;28;20282;-61
2023/12/25 05:01:05;;;;;;;;;;;19.80;49.70;;;;;;5030996;28;19979;-62
2023/12/25 05:03:32;;;;;;;;;;;19.80;49.70;;;;;;5029484;28;19929;-61
2023/12/25 05:05:59;;;;;;;;;;;19.80;49.70;;;;;;5029670;28;19921;-62
2023/12/25 05:08:25;;;;;;;;;;;19.80;49.70;;;;;;5030583;28;19925;-62
2023/12/25 05:10:52;;;;;;;;;;;19.80;49.70;;;;;;5026977;28;19955;-62
2023/12/25 05:13:19;;;;;;;;;;;19.80;49.70;;;;;;5028850;28;19983;-62
2023/12/25 05:15:45;;;;;;;;;;;19.80;49.70;;;;;;5030414;28;19979;-62
2023/12/25 05:18:13;;;;;;;;;;;19.80;49.70;;;;;;5030589;28;19929;-62
2023/12/25 05:20:40;;;;;;;;;;;19.80;49.70;;;;;;5030990;28;20313;-61
2023/12/25 05:23:07;;;;;;;;;;;19.80;49.70;;;;;;5029340;28;19967;-61
2023/12/25 05:25:34;;;;;;;;;;;19.80;49.70;;;;;;5031719;28;19922;-62
2023/12/25 05:28:00;;;;;;;;;;;19.80;49.70;;;;;;5029142;28;19925;-61
2023/12/25 05:30:27;;;;;;;;;;;19.80;49.70;;;;;;5029679;28;19929;-62
2023/12/25 05:32:54;;;;;;;;;;;19.80;49.70;;;;;;5025413;28;19991;-62
2023/12/25 05:35:23;;;;;;;;;;;19.80;49.60;;;;;;5029180;28;19987;-61
2023/12/25 05:37:50;;;;;;;;;;;19.80;49.60;;;;;;5029265;28;19975;-62
2023/12/25 05:40:16;;;;;;;;;;;19.80;49.60;;;;;;5034688;28;19925;-62
2023/12/25 05:42:44;;;;;;;;;;;19.80;49.60;;;;;;5033398;28;19933;-62
2023/12/25 05:45:10;;;;;;;;;;;19.80;49.60;;;;;;5032047;28;19937;-62
2023/12/25 05:47:37;;;;;;;;;;;19.80;49.70;;;;;;5033355;28;19933;-62
2023/12/25 05:50:04;;;;;;;;;;;19.80;49.60;;;;;;5034424;28;20249;-62
2023/12/25 05:52:32;;;;;;;;;;;19.80;49.60;;;;;;5033157;28;19925;-62
2023/12/25 05:55:00;;;;;;;;;;;19.80;49.60;;;;;;5032064;28;19971;-62
2023/12/25 05:57:26;;;;;;;;;;;19.80;49.60;;;;;;5030812;28;19929;-61
2023/12/25 05:59:53;;;;;;;;;;;19.80;49.60;;;;;;5033198;28;19944;-61
2023/12/25 06:02:20;;;;;;;;;;;19.80;49.60;;;;;;5027167;28;20312;-62
2023/12/25 06:04:46;;;;;;;;;;;19.80;49.60;;;;;;5031889;28;20048;-61
2023/12/25 06:07:13;;;;;;;;;;;19.80;49.60;;;;;;5033086;28;19967;-62
2023/12/25 06:09:41;;;;;;;;;;;19.80;49.60;;;;;;5032907;28;19925;-62
2023/12/25 06:12:08;;;;;;;;;;;19.80;49.60;;;;;;5032567;28;19936;-62
2023/12/25 06:14:35;;;;;;;;;;;19.80;49.60;;;;;;5032853;28;19944;-61
2023/12/25 06:17:02;;;;;;;;;;;19.80;49.60;;;;;;5033821;28;19921;-61
2023/12/25 06:19:29;;;;;;;;;;;19.80;49.60;;;;;;5008376;28;20011;-62
2023/12/25 06:21:56;;;;;;;;;;;19.80;49.60;;;;;;5033474;28;19975;-62
2023/12/25 06:24:22;;;;;;;;;;;19.80;49.60;;;;;;5034261;28;19925;-61
2023/12/25 06:26:50;;;;;;;;;;;19.80;49.60;;;;;;5032618;28;19920;-62
2023/12/25 06:29:17;;;;;;;;;;;19.80;49.60;;;;;;5032563;28;19928;-61
2023/12/25 06:31:45;;;;;;;;;;;19.80;49.60;;;;;;5033376;28;19941;-62
2023/12/25 06:34:12;;;;;;;;;;;19.80;49.60;;;;;;5032234;28;19925;-61
2023/12/25 06:36:39;;;;;;;;;;;19.80;49.60;;;;;;5030534;28;19975;-62
2023/12/25 06:39:05;;;;;;;;;;;19.80;49.50;;;;;;5031868;28;19947;-61
2023/12/25 06:41:32;;;;;;;;;;;19.70;49.40;;;;;;5032198;28;19925;-61
2023/12/25 06:44:00;;;;;;;;;;;19.80;49.50;;;;;;5033426;28;19921;-62
2023/12/25 06:46:27;;;;;;;;;;;19.70;49.40;;;;;;5031789;28;19932;-62
2023/12/25 06:48:54;;;;;;;;;;;19.80;49.50;;;;;;5032190;28;19921;-62
2023/12/25 06:51:20;;;;;;;;;;;19.80;49.50;;;;;;5028698;28;19964;-62
2023/12/25 06:53:47;;;;;;;;;;;19.80;49.50;;;;;;5031124;28;19929;-62
2023/12/25 06:56:14;;;;;;;;;;;19.70;49.40;;;;;;5025910;28;19926;-62
2023/12/25 06:58:40;;;;;;;;;;;19.80;49.50;;;;;;5031562;28;19921;-62
2023/12/25 07:01:08;;;;;;;;;;;19.80;49.50;;;;;;5031784;28;19952;-62
2023/12/25 07:03:35;;;;;;;;;;;19.80;49.50;;;;;;5031578;28;19921;-62
2023/12/25 07:06:02;;;;;;;;;;;19.80;49.50;;;;;;5031457;28;19925;-62
2023/12/25 07:08:29;;;;;;;;;;;19.80;49.50;;;;;;5032493;28;19932;-62
2023/12/25 07:10:56;;;;;;;;;;;19.80;49.50;;;;;;5033046;28;19921;-62
2023/12/25 07:13:22;;;;;;;;;;;19.80;49.50;;;;;;5028609;28;19986;-62
2023/12/25 07:15:49;;;;;;;;;;;19.80;49.50;;;;;;5018981;28;19925;-62
2023/12/25 07:18:17;;;;;;;;;;;19.80;49.50;;;;;;5026327;28;19925;-62
2023/12/25 07:20:44;;;;;;;;;;;19.80;49.50;;;;;;5033436;28;19925;-62
2023/12/25 07:23:12;;;;;;;;;;;19.80;49.50;;;;;;5031863;28;19939;-62
2023/12/25 07:25:39;;;;;;;;;;;19.80;49.50;;;;;;5030822;28;19927;-61
2023/12/25 07:28:05;;;;;;;;;;;19.80;49.50;;;;;;5031262;28;19995;-62
2023/12/25 07:30:32;;;;;;;;;;;19.80;49.50;;;;;;5032992;28;19921;-62
2023/12/25 07:32:59;;;;;;;;;;;19.80;49.50;;;;;;5032833;28;19983;-61
2023/12/25 07:35:27;;;;;;;;;;;19.80;49.50;;;;;;5032095;28;19937;-62
2023/12/25 07:37:54;;;;;;;;;;;19.80;49.50;;;;;;5030240;28;19921;-61
2023/12/25 07:40:21;;;;;;;;;;;19.80;49.50;;;;;;5027388;28;20149;-61
2023/12/25 07:42:47;;;;;;;;;;;19.80;49.70;;;;;;5027749;28;19945;-61
2023/12/25 07:45:14;;;;;;;;;;;19.80;49.50;;;;;;5027173;28;19944;-61
2023/12/25 07:47:41;;;;;;;;;;;19.80;49.50;;;;;;5028850;28;19925;-61
2023/12/25 07:50:08;;;;;;;;;;;19.80;49.50;;;;;;5028184;28;19921;-61
2023/12/25 07:52:36;;;;;;;;;;;19.70;49.40;;;;;;5030177;28;19929;-61
2023/12/25 07:55:03;;;;;;;;;;;19.80;49.50;;;;;;5029578;28;19921;-61
2023/12/25 07:57:30;;;;;;;;;;;19.80;49.50;;;;;;5030277;28;19988;-61
2023/12/25 07:59:57;;;;;;;;;;;19.80;49.40;;;;;;5029661;28;19933;-62
2023/12/25 08:02:24;;;;;;;;;;;19.80;49.50;;;;;;5029870;28;19925;-63
2023/12/25 08:04:51;;;;;;;;;;;19.80;49.50;;;;;;5029821;28;19925;-62
2023/12/25 08:07:17;;;;;;;;;;;19.70;49.30;;;;;;5027684;28;19971;-59
2023/12/25 08:09:45;;;;;;;;;;;19.80;49.50;;;;;;5029805;28;19925;-60
2023/12/25 08:12:12;;;;;;;;;;;19.80;48.90;;;;;;5028616;28;19921;-59
2023/12/25 08:14:40;;;;;;;;;;;19.70;47.00;;;;;;5030447;28;19928;-62
2023/12/25 08:17:07;;;;;;;;;;;19.70;45.70;;;;;;5030272;28;19984;-66
2023/12/25 08:19:34;;;;;;;;;;;19.60;44.70;;;;;;5030302;28;19921;-62
2023/12/25 08:22:00;;;;;;;;;;;19.50;44.50;;;;;;5029384;28;19921;-62
2023/12/25 08:24:27;;;;;;;;;;;19.40;44.90;;;;;;5027851;28;19932;-62
2023/12/25 08:26:55;;;;;;;;;;;19.40;45.30;;;;;;5011226;28;19975;-62
2023/12/25 08:29:22;;;;;;;;;;;19.30;45.50;;;;;;5019576;28;19925;-62
2023/12/25 08:31:49;;;;;;;;;;;19.30;45.80;;;;;;5030841;28;19933;-62
2023/12/25 08:34:15;;;;;;;;;;;19.40;46.20;;;;;;5027580;28;19921;-62
2023/12/25 08:36:42;;;;;;;;;;;19.40;46.30;;;;;;5030420;28;19956;-62
2023/12/25 08:39:09;;;;;;;;;;;19.40;46.50;;;;;;5031653;28;19975;-62
2023/12/25 08:41:35;;;;;;;;;;;19.40;46.60;;;;;;5030530;28;19940;-62
2023/12/25 08:44:04;;;;;;;;;;;19.30;46.60;;;;;;5026154;28;19947;-62
2023/12/25 08:46:30;;;;;;;;;;;19.40;46.80;;;;;;5029614;28;19975;-62
2023/12/25 08:48:57;;;;;;;;;;;19.40;46.80;;;;;;5031061;28;19936;-62
2023/12/25 08:51:25;;;;;;;;;;;19.40;46.90;;;;;;5030387;28;19953;-62
2023/12/25 08:53:52;;;;;;;;;;;19.40;47.00;;;;;;5030657;28;19926;-62
2023/12/25 08:56:22;;;;;;;;;;;19.40;47.00;;;;;;5029652;28;19927;-62
2023/12/25 08:58:49;;;;;;;;;;;19.40;47.70;;;;;;5026530;28;19924;-62
2023/12/25 09:01:17;;;;;;;;;;;19.50;47.20;;;;;;5030184;28;19965;-60
2023/12/25 09:03:44;;;;;;;;;;;19.50;47.20;;;;;;5045021;28;19921;-59
2023/12/25 09:06:12;;;;;;;;;;;19.50;47.20;;;;;;5028804;28;19929;-60
2023/12/25 09:08:39;;;;;;;;;;;19.50;47.30;;;;;;5029214;28;20059;-60
2023/12/25 09:11:07;;;;;;;;;;;19.50;47.30;;;;;;5029290;28;19971;-60
2023/12/25 09:13:34;;;;;;;;;;;19.50;47.40;;;;;;5029677;28;19925;-60
2023/12/25 09:16:01;;;;;;;;;;;19.50;47.40;;;;;;5029004;28;19921;-60
2023/12/25 09:18:29;;;;;;;;;;;19.50;47.40;;;;;;5029763;28;19964;-60
2023/12/25 09:20:57;;;;;;;;;;;19.50;47.40;;;;;;5029624;28;20007;-60
2023/12/25 09:23:24;;;;;;;;;;;19.50;47.50;;;;;;5024658;28;19924;-60
2023/12/25 09:25:50;;;;;;;;;;;19.50;46.70;;;;;;5029910;28;19929;-59
2023/12/25 09:28:17;;;;;;;;;;;19.50;46.50;;;;;;5021708;28;19933;-59
2023/12/25 09:30:44;;;;;;;;;;;19.50;46.50;;;;;;5023234;28;19933;-59
2023/12/25 09:33:11;;;;;;;;;;;19.50;46.60;;;;;;5027598;28;19925;-59
2023/12/25 09:35:39;;;;;;;;;;;19.50;46.70;;;;;;5037265;28;19980;-60
2023/12/25 09:38:06;;;;;;;;;;;19.50;46.80;;;;;;5021013;28;19936;-60
2023/12/25 09:40:33;;;;;;;;;;;19.50;46.80;;;;;;5030030;28;19925;-60
2023/12/25 09:43:01;;;;;;;;;;;19.50;46.90;;;;;;5026960;28;19921;-59
2023/12/25 09:45:28;;;;;;;;;;;19.50;47.00;;;;;;5028243;28;20059;-60
2023/12/25 09:47:55;;;;;;;;;;;19.50;47.00;;;;;;5030379;28;19932;-60
2023/12/25 09:50:21;;;;;;;;;;;19.50;47.00;;;;;;5032433;28;19929;-59
2023/12/25 09:52:49;;;;;;;;;;;19.50;47.10;;;;;;5027127;28;19925;-59
2023/12/25 09:55:17;;;;;;;;;;;19.50;47.10;;;;;;5028625;28;19971;-60
2023/12/25 09:57:44;;;;;;;;;;;19.60;47.20;;;;;;5013916;28;19921;-60
2023/12/25 10:00:11;;;;;;;;;;;19.60;47.30;;;;;;5026430;28;19952;-59
2023/12/25 10:02:38;;;;;;;;;;;19.60;47.30;;;;;;5029459;28;19941;-59
2023/12/25 10:05:06;;;;;;;;;;;19.60;47.30;;;;;;5026608;28;20018;-59
2023/12/25 10:07:33;;;;;;;;;;;19.60;47.40;;;;;;5031284;28;20028;-59
2023/12/25 10:10:02;;;;;;;;;;;19.60;47.40;;;;;;5033932;28;19929;-59
2023/12/25 10:12:28;;;;;;;;;;;19.60;47.40;;;;;;5034477;28;19925;-60
2023/12/25 10:14:55;;;;;;;;;;;19.60;47.50;;;;;;5037385;28;19936;-60
2023/12/25 10:17:22;;;;;;;;;;;19.60;47.50;;;;;;5035300;28;19924;-59
2023/12/25 10:19:51;;;;;;;;;;;19.60;47.50;;;;;;5028622;28;19928;-59
2023/12/25 10:22:28;;;;;;;;;;;19.60;47.50;;;;;;5030884;28;19921;-60
2023/12/25 10:24:55;;;;;;;;;;;19.60;47.60;;;;;;5032391;28;20213;-59
2023/12/25 10:27:24;;;;;;;;;;;19.60;47.60;;;;;;5032933;28;19964;-59
2023/12/25 10:29:50;;;;;;;;;;;19.60;47.60;;;;;;5036908;28;19975;-59
2023/12/25 10:32:18;;;;;;;;;;;19.60;47.60;;;;;;5032392;28;19921;-62
2023/12/25 10:34:45;;;;;;;;;;;19.60;47.60;;;;;;5032808;28;19983;-62
2023/12/25 10:37:11;;;;;;;;;;;19.70;47.70;;;;;;5038493;28;19956;-62
2023/12/25 10:39:38;;;;;;;;;;;19.70;47.70;;;;;;5041076;28;19921;-62
2023/12/25 10:42:05;;;;;;;;;;;19.60;47.70;;;;;;5034175;28;19926;-62
2023/12/25 10:44:34;;;;;;;;;;;19.60;47.70;;;;;;5040220;28;19921;-62
2023/12/25 10:47:01;;;;;;;;;;;19.70;47.80;;;;;;5032325;28;19921;-62
2023/12/25 10:49:28;;;;;;;;;;;19.70;47.80;;;;;;5035294;28;20424;-62
2023/12/25 10:51:55;;;;;;;;;;;19.70;47.80;;;;;;5014319;28;19921;-62
2023/12/25 10:54:22;;;;;;;;;;;19.70;47.80;;;;;;5040179;28;19921;-62
2023/12/25 10:56:48;;;;;;;;;;;19.70;47.80;;;;;;5028522;28;19921;-62
2023/12/25 10:59:16;;;;;;;;;;;19.70;47.80;;;;;;5038379;28;19925;-62
2023/12/25 11:01:46;;;;;;;;;;;19.70;47.90;;;;;;5033898;28;20364;-62
2023/12/25 11:04:13;;;;;;;;;;;19.70;47.90;;;;;;5035186;28;19925;-62
2023/12/25 11:06:40;;;;;;;;;;;19.70;47.90;;;;;;5033570;28;19925;-62
2023/12/25 11:09:06;;;;;;;;;;;19.70;47.90;;;;;;5032653;28;19932;-62
2023/12/25 11:11:33;;;;;;;;;;;19.70;47.90;;;;;;5038118;28;19921;-62
2023/12/25 11:14:00;;;;;;;;;;;19.70;47.90;;;;;;5041090;28;19928;-62
2023/12/25 11:16:26;;;;;;;;;;;19.70;47.90;;;;;;5033999;28;19971;-62
2023/12/25 11:18:54;;;;;;;;;;;19.70;47.90;;;;;;5040387;28;19928;-62
2023/12/25 11:21:23;;;;;;;;;;;19.70;48.00;;;;;;5036381;28;19968;-60
2023/12/25 11:23:51;;;;;;;;;;;19.70;48.00;;;;;;5038034;28;19920;-60
2023/12/25 11:26:18;;;;;;;;;;;19.70;48.00;;;;;;5035506;28;19925;-62
2023/12/25 11:28:52;;;;;;;;;;;19.70;48.00;;;;;;5023088;28;19929;-60
2023/12/25 11:31:21;;;;;;;;;;;19.80;48.00;;;;;;5026363;28;20210;-60
2023/12/25 11:33:48;;;;;;;;;;;19.70;48.00;;;;;;5033364;28;19928;-60
2023/12/25 11:36:17;;;;;;;;;;;19.80;48.10;;;;;;5030358;28;19971;-61
2023/12/25 11:38:45;;;;;;;;;;;19.70;48.00;;;;;;5031661;28;20444;-60
2023/12/25 11:41:14;;;;;;;;;;;19.80;48.10;;;;;;5029563;28;19921;-61
2023/12/25 11:43:41;;;;;;;;;;;19.70;48.00;;;;;;5031805;28;19959;-61
2023/12/25 11:46:10;;;;;;;;;;;19.80;48.10;;;;;;5032139;28;19989;-60
2023/12/25 11:48:39;;;;;;;;;;;19.80;48.10;;;;;;5028975;28;19971;-62
2023/12/25 11:51:20;;;;;;;;;;;19.80;48.10;;;;;;5029644;28;19928;-62
2023/12/25 11:53:47;;;;;;;;;;;19.80;48.10;;;;;;5031264;28;19929;-61
2023/12/25 11:56:14;;;;;;;;;;;19.80;48.10;;;;;;5040273;28;19932;-62
2023/12/25 11:58:40;;;;;;;;;;;19.80;48.10;;;;;;5035620;28;20407;-62
2023/12/25 12:01:07;;;;;;;;;;;19.80;48.10;;;;;;5029618;28;20339;-62
2023/12/25 12:03:34;;;;;;;;;;;19.80;48.10;;;;;;5031391;28;20326;-61
2023/12/25 12:06:01;;;;;;;;;;;19.80;48.20;;;;;;5025580;28;19976;-61
2023/12/25 12:08:29;;;;;;;;;;;19.80;48.20;;;;;;5033299;28;19925;-61
2023/12/25 12:10:55;;;;;;;;;;;19.80;48.20;;;;;;5029627;28;20012;-61
2023/12/25 12:13:22;;;;;;;;;;;19.80;48.20;;;;;;5032379;28;19925;-61
2023/12/25 12:15:49;;;;;;;;;;;19.80;48.20;;;;;;5018907;28;19975;-62
2023/12/25 12:18:16;;;;;;;;;;;19.80;48.20;;;;;;5045906;28;19920;-62
2023/12/25 12:20:42;;;;;;;;;;;19.80;48.20;;;;;;5036731;28;19971;-61
2023/12/25 12:23:13;;;;;;;;;;;19.80;48.20;;;;;;5029987;28;19961;-62
2023/12/25 12:25:41;;;;;;;;;;;19.80;48.20;;;;;;5029921;28;19928;-62
2023/12/25 12:28:08;;;;;;;;;;;19.80;48.20;;;;;;5036318;28;19921;-61
2023/12/25 12:30:36;;;;;;;;;;;19.80;48.20;;;;;;5040906;28;19928;-61
2023/12/25 12:33:03;;;;;;;;;;;19.80;48.20;;;;;;5028790;28;19927;-61
2023/12/25 12:35:30;;;;;;;;;;;19.80;48.30;;;;;;5024433;28;20015;-62
2023/12/25 12:37:57;;;;;;;;;;;19.80;48.20;;;;;;5033462;28;19966;-62
2023/12/25 12:40:24;;;;;;;;;;;19.80;48.30;;;;;;5020849;28;19924;-61
2023/12/25 12:42:52;;;;;;;;;;;19.80;48.20;;;;;;5032287;28;19979;-61
2023/12/25 12:45:19;;;;;;;;;;;19.80;48.20;;;;;;5036948;28;19928;-62
2023/12/25 12:47:46;;;;;;;;;;;19.80;48.20;;;;;;5033664;28;19921;-61
2023/12/25 12:50:13;;;;;;;;;;;19.80;48.30;;;;;;5027796;28;19929;-61
2023/12/25 12:52:39;;;;;;;;;;;19.80;48.30;;;;;;5040082;28;19924;-61
2023/12/25 12:55:07;;;;;;;;;;;19.80;48.30;;;;;;5033118;28;19971;-62
2023/12/25 12:57:33;;;;;;;;;;;19.80;48.30;;;;;;5035776;28;20328;-61
2023/12/25 13:00:03;;;;;;;;;;;19.80;48.30;;;;;;5036926;28;19975;-62
2023/12/25 13:02:29;;;;;;;;;;;19.80;48.30;;;;;;5038587;28;19925;-62
2023/12/25 13:04:55;;;;;;;;;;;19.80;48.30;;;;;;5030929;28;19925;-61
2023/12/25 13:07:22;;;;;;;;;;;19.80;48.70;;;;;;5031858;28;19936;-61
2023/12/25 13:09:49;;;;;;;;;;;19.80;48.30;;;;;;5030980;28;19928;-61
2023/12/25 13:12:15;;;;;;;;;;;19.90;48.40;;;;;;5037644;28;19921;-61
2023/12/25 13:14:42;;;;;;;;;;;19.90;48.40;;;;;;5030318;28;19925;-61
2023/12/25 13:17:10;;;;;;;;;;;19.80;48.40;;;;;;5030856;28;19921;-62
2023/12/25 13:19:37;;;;;;;;;;;19.90;48.40;;;;;;5029508;28;19933;-62
2023/12/25 13:22:05;;;;;;;;;;;19.80;48.40;;;;;;5029668;28;19929;-62
2023/12/25 13:24:32;;;;;;;;;;;19.90;48.40;;;;;;5026093;28;19920;-62
2023/12/25 13:27:03;;;;;;;;;;;19.90;48.40;;;;;;5010891;28;19932;-60
2023/12/25 13:29:29;;;;;;;;;;;19.90;48.50;;;;;;5029220;28;19948;-62
2023/12/25 13:31:56;;;;;;;;;;;19.80;48.50;;;;;;5028827;28;20023;-62
2023/12/25 13:34:24;;;;;;;;;;;19.80;48.40;;;;;;5029180;28;19925;-62
2023/12/25 13:36:51;;;;;;;;;;;19.80;48.50;;;;;;5028208;28;19921;-62
2023/12/25 13:39:18;;;;;;;;;;;19.90;48.50;;;;;;5010803;28;19925;-62
2023/12/25 13:41:45;;;;;;;;;;;19.90;48.50;;;;;;5009411;28;19921;-62
2023/12/25 13:44:11;;;;;;;;;;;19.90;48.50;;;;;;5010837;28;19925;-62
2023/12/25 13:46:38;;;;;;;;;;;19.90;48.50;;;;;;5013371;28;19928;-62
2023/12/25 13:49:05;;;;;;;;;;;19.90;48.50;;;;;;5013515;28;19921;-62
2023/12/25 13:51:34;;;;;;;;;;;19.90;48.50;;;;;;5030576;28;19951;-62
2023/12/25 13:54:00;;;;;;;;;;;19.90;48.60;;;;;;5029729;28;19956;-62
2023/12/25 13:56:28;;;;;;;;;;;19.90;48.50;;;;;;5019709;28;19921;-62
2023/12/25 13:58:55;;;;;;;;;;;19.90;48.60;;;;;;5027121;28;19931;-62
2023/12/25 14:01:22;;;;;;;;;;;19.90;48.60;;;;;;5033348;28;19925;-61
2023/12/25 14:03:49;;;;;;;;;;;19.90;48.60;;;;;;5033212;28;19932;-62
2023/12/25 14:06:16;;;;;;;;;;;19.90;48.60;;;;;;5026597;28;19925;-62
2023/12/25 14:08:43;;;;;;;;;;;19.90;48.50;;;;;;5015107;28;19921;-62
2023/12/25 14:11:09;;;;;;;;;;;19.90;48.60;;;;;;5028779;28;19921;-62
2023/12/25 14:13:36;;;;;;;;;;;19.80;48.50;;;;;;5032915;28;19928;-62
2023/12/25 14:16:03;;;;;;;;;;;19.90;48.60;;;;;;5033038;28;19921;-62